Time;durP1;ratioP1;P1;durP2;ratioP2;P2;SDS_P1;SDS_P2;PMS_P1;PMS_P2;Temp;Humidity;BMP_temperature;BMP_pressure;BME280_temperature;BME280_humidity;BME280_pressure;Samples;Min_cycle;Max_cycle;Signal;HPM_P1;HPM_P2
2023/06/18 00:00:58;;;;;;;3.70;2.80;;;15.40;99.90;;;;;;6110727;23;20084;-68
2023/06/18 00:03:25;;;;;;;2.72;2.50;;;15.40;99.90;;;;;;6111585;23;20014;-68
2023/06/18 00:05:53;;;;;;;3.80;2.25;;;15.40;99.90;;;;;;6111234;23;20002;-69
2023/06/18 00:08:19;;;;;;;4.43;2.33;;;15.40;99.90;;;;;;6110377;23;20040;-69
2023/06/18 00:10:45;;;;;;;3.33;2.60;;;15.30;99.90;;;;;;6108721;23;20428;-70
2023/06/18 00:13:10;;;;;;;2.75;2.35;;;15.20;99.90;;;;;;6109229;23;20006;-69
2023/06/18 00:15:36;;;;;;;2.63;1.83;;;15.20;99.90;;;;;;6110159;23;20443;-69
2023/06/18 00:18:02;;;;;;;2.78;2.53;;;15.20;99.90;;;;;;6112644;23;20006;-69
2023/06/18 00:20:27;;;;;;;2.70;2.50;;;15.10;99.90;;;;;;6109964;23;20038;-70
2023/06/18 00:22:53;;;;;;;3.60;2.38;;;15.10;99.90;;;;;;6109917;23;20025;-69
2023/06/18 00:25:19;;;;;;;2.30;2.10;;;15.00;99.90;;;;;;6110415;23;20074;-69
2023/06/18 00:27:48;;;;;;;5.95;2.95;;;15.00;99.90;;;;;;6107943;23;20025;-70
2023/06/18 00:30:14;;;;;;;4.30;2.28;;;14.80;99.90;;;;;;6106206;23;20401;-69
2023/06/18 00:32:43;;;;;;;2.35;2.15;;;14.80;99.90;;;;;;6109100;23;20001;-67
2023/06/18 00:35:10;;;;;;;4.10;2.05;;;14.80;99.90;;;;;;6108837;23;20014;-69
2023/06/18 00:37:36;;;;;;;3.17;2.13;;;14.90;99.90;;;;;;6111911;23;20089;-68
2023/06/18 00:40:02;;;;;;;2.30;2.17;;;14.80;99.90;;;;;;6110558;23;20405;-68
2023/06/18 00:42:28;;;;;;;2.47;2.28;;;14.70;99.90;;;;;;6109676;23;20289;-68
2023/06/18 00:44:54;;;;;;;3.65;2.53;;;14.70;99.90;;;;;;6105598;23;20360;-68
2023/06/18 00:47:20;;;;;;;2.80;2.20;;;14.60;99.90;;;;;;6105136;23;20134;-68
2023/06/18 00:49:47;;;;;;;2.38;2.13;;;14.50;99.90;;;;;;6101564;23;20009;-68
2023/06/18 00:52:14;;;;;;;2.95;2.20;;;14.40;99.90;;;;;;6103764;23;20033;-68
2023/06/18 00:54:44;;;;;;;3.42;2.20;;;14.40;99.90;;;;;;6109046;23;20101;-68
2023/06/18 00:57:13;;;;;;;3.13;2.08;;;14.30;99.90;;;;;;6108625;23;20010;-68
2023/06/18 00:59:42;;;;;;;3.78;2.35;;;14.30;99.90;;;;;;6107730;23;20080;-67
2023/06/18 01:02:08;;;;;;;4.18;2.70;;;14.30;99.90;;;;;;6080554;23;20022;-68
2023/06/18 01:04:36;;;;;;;2.33;2.13;;;14.40;99.90;;;;;;6108448;23;20319;-68
2023/06/18 01:07:03;;;;;;;3.67;2.60;;;14.30;99.90;;;;;;6108198;23;20065;-68
2023/06/18 01:09:30;;;;;;;3.83;2.50;;;14.30;99.90;;;;;;6108611;23;20556;-68
2023/06/18 01:12:00;;;;;;;2.45;2.10;;;14.20;99.90;;;;;;6108144;23;20081;-68
2023/06/18 01:14:28;;;;;;;3.60;2.28;;;14.20;99.90;;;;;;6106271;23;20057;-68
2023/06/18 01:16:55;;;;;;;3.08;2.80;;;14.20;99.90;;;;;;6108272;23;20014;-67
2023/06/18 01:19:56;;;;;;;2.22;2.03;;;14.20;99.90;;;;;;6105623;23;20002;-67
2023/06/18 01:22:33;;;;;;;2.33;2.13;;;14.30;99.90;;;;;;6107957;23;20014;-67
2023/06/18 01:25:02;;;;;;;4.32;2.05;;;14.10;99.90;;;;;;6107559;23;20014;-67
2023/06/18 01:27:31;;;;;;;4.35;2.50;;;14.00;99.90;;;;;;6110439;23;20010;-67
2023/06/18 01:29:58;;;;;;;2.72;2.30;;;13.90;99.90;;;;;;6107938;23;20202;-67
2023/06/18 01:32:23;;;;;;;2.20;2.00;;;13.90;99.90;;;;;;6109249;23;20016;-67
2023/06/18 01:34:53;;;;;;;3.92;2.47;;;14.00;99.90;;;;;;6105700;23;20010;-67
2023/06/18 01:37:50;;;;;;;3.53;2.20;;;14.00;99.90;;;;;;6109236;23;20014;-67
2023/06/18 01:40:40;;;;;;;2.08;1.92;;;13.90;99.90;;;;;;6110331;23;20408;-67
2023/06/18 01:43:21;;;;;;;3.20;2.70;;;13.90;99.90;;;;;;6105551;23;20018;-67
2023/06/18 01:45:50;;;;;;;2.03;1.88;;;14.00;99.90;;;;;;6104158;23;20002;-67
2023/06/18 01:48:20;;;;;;;2.58;2.38;;;14.10;99.90;;;;;;6106578;23;20071;-67
2023/06/18 01:50:48;;;;;;;3.60;2.30;;;14.10;99.90;;;;;;6082044;23;20009;-67
2023/06/18 01:53:16;;;;;;;3.25;2.35;;;14.10;99.90;;;;;;6107006;23;20053;-67
2023/06/18 01:55:45;;;;;;;3.03;2.70;;;14.00;99.90;;;;;;6111580;23;20084;-67
2023/06/18 01:58:16;;;;;;;3.00;2.70;;;14.00;99.90;;;;;;6108039;23;20109;-67
2023/06/18 02:00:42;;;;;;;4.18;2.55;;;14.10;99.90;;;;;;6108865;23;20001;-67
2023/06/18 02:03:08;;;;;;;2.78;2.30;;;14.00;99.90;;;;;;6112602;23;20064;-67
2023/06/18 02:05:34;;;;;;;2.78;2.55;;;13.90;99.90;;;;;;6107160;23;20013;-68
2023/06/18 02:08:00;;;;;;;3.55;2.42;;;13.80;99.90;;;;;;6111382;23;20014;-68
2023/06/18 02:10:25;;;;;;;3.20;2.38;;;13.70;99.90;;;;;;6113340;23;20415;-68
2023/06/18 02:12:51;;;;;;;2.92;2.30;;;13.60;99.90;;;;;;6111479;23;20391;-67
2023/06/18 02:15:17;;;;;;;2.50;2.30;;;13.60;99.90;;;;;;6114134;23;20009;-67
2023/06/18 02:17:43;;;;;;;3.42;2.47;;;13.60;99.90;;;;;;6112065;23;20006;-67
2023/06/18 02:20:10;;;;;;;2.50;2.25;;;13.60;99.90;;;;;;6110011;23;20590;-67
2023/06/18 02:22:37;;;;;;;2.60;2.38;;;13.60;99.90;;;;;;6105443;23;20018;-67
2023/06/18 02:25:04;;;;;;;3.75;2.38;;;13.60;99.90;;;;;;6085154;23;20013;-67
2023/06/18 02:27:30;;;;;;;2.60;2.40;;;13.60;99.90;;;;;;6111073;23;20089;-67
2023/06/18 02:29:55;;;;;;;2.75;2.20;;;13.60;99.90;;;;;;6112676;23;20073;-67
2023/06/18 02:32:21;;;;;;;2.45;2.25;;;13.60;99.90;;;;;;6110651;23;20005;-67
2023/06/18 02:34:46;;;;;;;3.13;2.40;;;13.70;99.90;;;;;;6114347;23;20001;-67
2023/06/18 02:37:12;;;;;;;3.38;2.63;;;13.60;99.90;;;;;;6110354;23;20014;-67
2023/06/18 02:39:38;;;;;;;3.05;2.75;;;13.40;99.90;;;;;;6110666;23;20002;-67
2023/06/18 02:42:06;;;;;;;2.78;2.45;;;13.30;99.90;;;;;;6109392;23;20018;-67
2023/06/18 02:44:32;;;;;;;4.15;2.63;;;13.40;99.90;;;;;;6106101;23;20518;-68
2023/06/18 02:46:58;;;;;;;2.63;2.40;;;13.40;99.90;;;;;;6109213;23;20101;-67
2023/06/18 02:49:24;;;;;;;3.00;2.70;;;13.40;99.90;;;;;;6112005;23;20109;-67
2023/06/18 02:51:50;;;;;;;3.30;2.42;;;13.40;99.90;;;;;;6112538;23;20184;-67
2023/06/18 02:54:16;;;;;;;3.58;3.15;;;13.40;99.90;;;;;;6083125;23;20176;-67
2023/06/18 02:56:42;;;;;;;4.68;2.90;;;13.40;99.90;;;;;;6111585;23;20439;-67
2023/06/18 02:59:08;;;;;;;2.90;2.60;;;13.40;99.90;;;;;;6111161;23;20009;-67
2023/06/18 03:01:33;;;;;;;3.83;2.60;;;13.50;99.90;;;;;;6109916;23;20061;-67
2023/06/18 03:03:59;;;;;;;2.80;2.60;;;13.50;99.90;;;;;;6106865;23;20010;-67
2023/06/18 03:06:27;;;;;;;2.67;2.47;;;13.40;99.90;;;;;;6106431;23;20012;-67
2023/06/18 03:08:53;;;;;;;3.55;2.80;;;13.30;99.90;;;;;;6111503;23;20006;-66
2023/06/18 03:11:19;;;;;;;4.15;3.05;;;13.20;99.90;;;;;;6108575;23;20014;-65
2023/06/18 03:13:44;;;;;;;3.35;2.40;;;13.20;99.90;;;;;;6111946;23;20271;-65
2023/06/18 03:16:10;;;;;;;3.08;2.78;;;13.20;99.90;;;;;;6111411;23;20016;-65
2023/06/18 03:18:37;;;;;;;3.08;2.85;;;13.30;99.90;;;;;;6110808;23;20080;-65
2023/06/18 03:21:03;;;;;;;3.03;2.72;;;13.40;99.90;;;;;;6110318;23;20002;-65
2023/06/18 03:23:29;;;;;;;3.45;2.70;;;13.40;99.90;;;;;;6108995;23;20017;-65
2023/06/18 03:25:55;;;;;;;3.92;2.83;;;13.40;99.90;;;;;;6111410;23;20144;-65
2023/06/18 03:28:22;;;;;;;3.10;2.70;;;13.50;99.90;;;;;;6110330;23;20071;-65
2023/06/18 03:30:47;;;;;;;3.88;2.90;;;13.50;99.90;;;;;;6111381;23;20340;-65
2023/06/18 03:33:13;;;;;;;3.72;2.63;;;13.60;99.90;;;;;;6111891;23;20006;-65
2023/06/18 03:35:39;;;;;;;3.83;2.58;;;13.60;99.90;;;;;;6113100;23;20013;-65
2023/06/18 03:38:05;;;;;;;2.80;2.58;;;13.70;99.90;;;;;;6111302;23;20013;-66
2023/06/18 03:40:30;;;;;;;3.40;2.90;;;13.80;99.90;;;;;;6110004;23;20093;-65
2023/06/18 03:42:56;;;;;;;3.35;2.92;;;13.80;99.90;;;;;;6082453;23;20022;-66
2023/06/18 03:45:21;;;;;;;4.40;2.65;;;13.90;99.90;;;;;;6108853;23;20402;-65
2023/06/18 03:47:47;;;;;;;4.45;2.75;;;13.90;99.90;;;;;;6111350;23;20026;-65
2023/06/18 03:50:13;;;;;;;3.42;3.13;;;13.90;99.90;;;;;;6110289;23;20029;-65
2023/06/18 03:52:39;;;;;;;3.75;2.75;;;13.90;99.90;;;;;;6109556;23;20063;-66
2023/06/18 03:55:05;;;;;;;4.70;2.88;;;14.00;99.90;;;;;;6108566;23;20001;-66
2023/06/18 03:57:31;;;;;;;5.03;2.80;;;14.10;99.90;;;;;;6110515;23;20154;-65
2023/06/18 03:59:57;;;;;;;3.25;2.80;;;14.10;99.90;;;;;;6109042;23;20006;-65
2023/06/18 04:02:22;;;;;;;2.92;2.63;;;14.20;99.90;;;;;;6108637;23;20025;-65
2023/06/18 04:04:48;;;;;;;4.35;2.55;;;14.20;99.90;;;;;;6109454;23;20347;-67
2023/06/18 04:07:14;;;;;;;5.10;2.70;;;14.20;99.90;;;;;;6110260;23;20037;-67
2023/06/18 04:09:39;;;;;;;3.30;3.00;;;14.30;99.90;;;;;;6112185;23;20012;-67
2023/06/18 04:12:06;;;;;;;4.25;2.53;;;14.30;99.90;;;;;;6112874;23;20080;-67
2023/06/18 04:14:34;;;;;;;2.80;2.60;;;14.40;99.90;;;;;;6111769;23;20006;-67
2023/06/18 04:17:00;;;;;;;3.78;3.17;;;14.50;99.90;;;;;;6111674;23;20312;-67
2023/06/18 04:19:26;;;;;;;3.35;3.05;;;14.50;99.90;;;;;;6110799;23;20001;-67
2023/06/18 04:21:51;;;;;;;3.40;3.03;;;14.60;99.90;;;;;;6111191;23;20037;-66
2023/06/18 04:24:17;;;;;;;3.25;2.95;;;14.80;99.90;;;;;;6108310;23;20227;-68
2023/06/18 04:26:43;;;;;;;4.05;3.30;;;14.90;99.90;;;;;;6110370;23;20005;-68
2023/06/18 04:29:08;;;;;;;3.28;2.92;;;15.00;99.90;;;;;;6112581;23;20013;-67
2023/06/18 04:31:35;;;;;;;3.45;3.00;;;15.10;99.90;;;;;;6110932;23;20006;-68
2023/06/18 04:34:01;;;;;;;3.40;3.08;;;15.20;99.90;;;;;;6111971;23;20455;-67
2023/06/18 04:36:26;;;;;;;3.15;2.90;;;15.30;99.90;;;;;;6111568;23;20002;-67
2023/06/18 04:38:52;;;;;;;3.45;2.80;;;15.40;99.90;;;;;;6109121;23;20002;-69
2023/06/18 04:41:18;;;;;;;3.13;2.83;;;15.50;99.90;;;;;;6106940;23;20076;-69
2023/06/18 04:43:43;;;;;;;3.92;3.33;;;15.60;99.90;;;;;;6110406;23;20391;-69
2023/06/18 04:46:09;;;;;;;3.72;2.80;;;15.70;99.90;;;;;;6108287;23;20474;-68
2023/06/18 04:48:35;;;;;;;3.17;2.88;;;15.80;99.90;;;;;;6108253;23;20452;-68
2023/06/18 04:51:00;;;;;;;2.85;2.65;;;15.90;99.90;;;;;;6108839;23;20017;-68
2023/06/18 04:53:26;;;;;;;3.35;2.92;;;16.00;99.90;;;;;;6108054;23;20089;-69
2023/06/18 04:55:52;;;;;;;3.28;2.75;;;16.10;99.90;;;;;;6111322;23;20068;-70
2023/06/18 04:58:20;;;;;;;4.43;3.15;;;16.20;99.90;;;;;;6107258;23;20009;-69
2023/06/18 05:00:46;;;;;;;3.70;3.20;;;16.30;99.90;;;;;;6109910;23;20002;-69
2023/06/18 05:03:12;;;;;;;4.05;3.03;;;16.40;99.90;;;;;;6110097;23;20014;-67
2023/06/18 05:05:38;;;;;;;3.10;2.88;;;16.50;99.90;;;;;;6108482;23;20041;-67
2023/06/18 05:08:03;;;;;;;6.70;2.70;;;16.70;99.90;;;;;;6084545;23;20013;-68
2023/06/18 05:10:29;;;;;;;9.98;3.50;;;16.80;99.90;;;;;;6109645;23;20089;-67
2023/06/18 05:12:55;;;;;;;3.55;2.63;;;16.90;99.90;;;;;;6110009;23;20002;-68
2023/06/18 05:15:20;;;;;;;2.80;2.60;;;17.10;99.90;;;;;;6107623;23;20065;-67
2023/06/18 05:17:46;;;;;;;7.28;2.70;;;17.20;99.90;;;;;;6109819;23;20085;-68
2023/06/18 05:20:12;;;;;;;2.97;2.10;;;17.30;99.90;;;;;;6110139;23;20060;-68
2023/06/18 05:22:40;;;;;;;3.53;2.85;;;17.40;99.90;;;;;;6109156;23;20475;-69
2023/06/18 05:25:06;;;;;;;2.92;2.40;;;17.50;99.90;;;;;;6110343;23;20017;-69
2023/06/18 05:27:31;;;;;;;2.53;2.33;;;17.60;99.90;;;;;;6109107;23;20017;-69
2023/06/18 05:29:57;;;;;;;2.30;2.10;;;17.60;99.90;;;;;;6109197;23;20002;-69
2023/06/18 05:32:23;;;;;;;3.63;2.05;;;17.70;99.90;;;;;;6112411;23;20006;-69
2023/06/18 05:34:48;;;;;;;2.40;2.20;;;17.80;99.90;;;;;;6111368;23;20010;-69
2023/06/18 05:37:14;;;;;;;2.33;2.17;;;17.90;99.90;;;;;;6111249;23;20006;-69
2023/06/18 05:39:40;;;;;;;2.65;2.45;;;17.90;99.90;;;;;;6112453;23;20008;-69
2023/06/18 05:42:06;;;;;;;8.95;2.80;;;18.10;99.90;;;;;;6111831;23;20052;-69
2023/06/18 05:44:32;;;;;;;7.13;2.53;;;18.30;99.90;;;;;;6081708;23;20012;-69
2023/06/18 05:46:57;;;;;;;2.47;2.28;;;18.40;99.90;;;;;;6111432;23;20006;-71
2023/06/18 05:49:25;;;;;;;2.50;2.30;;;18.60;99.90;;;;;;6108338;23;20025;-70
2023/06/18 05:51:51;;;;;;;4.18;2.38;;;18.70;99.90;;;;;;6109466;23;20077;-70
2023/06/18 05:54:17;;;;;;;5.80;2.53;;;18.80;99.90;;;;;;6110814;23;20086;-69
2023/06/18 05:56:43;;;;;;;4.72;2.50;;;19.00;99.90;;;;;;6110531;23;20016;-69
2023/06/18 05:59:09;;;;;;;2.70;2.50;;;19.20;99.90;;;;;;6110847;23;20005;-70
2023/06/18 06:01:36;;;;;;;2.22;2.10;;;19.30;99.90;;;;;;6107565;23;20005;-69
2023/06/18 06:04:02;;;;;;;2.67;2.47;;;19.50;99.90;;;;;;6109838;23;20367;-70
2023/06/18 06:06:28;;;;;;;2.45;2.25;;;19.50;99.90;;;;;;6112132;23;20006;-70
2023/06/18 06:08:53;;;;;;;2.30;2.10;;;19.60;99.90;;;;;;6111811;23;20068;-69
2023/06/18 06:11:19;;;;;;;2.78;2.42;;;19.70;99.90;;;;;;6114802;23;20568;-69
2023/06/18 06:13:45;;;;;;;1.95;1.75;;;19.80;99.90;;;;;;6111795;23;20085;-70
2023/06/18 06:16:11;;;;;;;2.55;2.35;;;20.00;99.90;;;;;;6111280;23;20561;-66
2023/06/18 06:18:37;;;;;;;2.85;2.17;;;20.10;99.90;;;;;;6112581;23;20006;-66
2023/06/18 06:21:02;;;;;;;2.25;2.05;;;20.20;99.90;;;;;;6111331;23;20102;-66
2023/06/18 06:23:30;;;;;;;3.20;2.00;;;20.30;99.90;;;;;;6112352;23;20355;-69
2023/06/18 06:25:55;;;;;;;2.47;2.22;;;20.40;99.90;;;;;;6111907;23;20002;-70
2023/06/18 06:28:21;;;;;;;3.30;2.20;;;20.50;99.90;;;;;;6086803;23;20021;-70
2023/06/18 06:30:47;;;;;;;2.33;2.03;;;20.50;99.90;;;;;;6108298;23;20013;-70
2023/06/18 06:33:13;;;;;;;3.15;2.47;;;20.70;99.90;;;;;;6106596;23;19997;-66
2023/06/18 06:35:38;;;;;;;2.45;2.25;;;20.80;99.90;;;;;;6108161;23;20009;-67
2023/06/18 06:38:04;;;;;;;4.85;2.28;;;20.90;99.90;;;;;;6112095;23;20081;-67
2023/06/18 06:40:30;;;;;;;3.25;1.90;;;21.00;99.90;;;;;;6111476;23;20009;-65
2023/06/18 06:42:55;;;;;;;4.60;2.17;;;21.10;99.90;;;;;;6112170;23;20022;-64
2023/06/18 06:45:21;;;;;;;3.33;2.30;;;21.20;99.90;;;;;;6111866;23;20064;-64
2023/06/18 06:47:48;;;;;;;2.55;2.17;;;21.40;99.90;;;;;;6111350;23;20081;-65
2023/06/18 06:50:14;;;;;;;2.35;1.90;;;21.50;99.90;;;;;;6108187;23;20010;-65
2023/06/18 06:52:40;;;;;;;2.55;1.77;;;21.50;99.90;;;;;;6110511;23;20399;-65
2023/06/18 06:55:05;;;;;;;3.53;2.03;;;21.60;99.90;;;;;;6109504;23;20006;-64
2023/06/18 06:57:31;;;;;;;2.35;2.15;;;21.60;99.90;;;;;;6109455;23;20016;-64
2023/06/18 06:59:57;;;;;;;2.22;1.90;;;21.60;99.90;;;;;;6111838;23;20065;-65
2023/06/18 07:02:22;;;;;;;2.30;1.70;;;21.70;99.90;;;;;;6109324;23;20117;-65
2023/06/18 07:04:48;;;;;;;3.00;1.60;;;21.80;99.90;;;;;;6107644;23;20002;-64
2023/06/18 07:07:15;;;;;;;1.80;1.70;;;21.90;99.90;;;;;;6108845;23;20036;-65
2023/06/18 07:09:41;;;;;;;1.42;1.33;;;22.00;99.90;;;;;;6112043;23;20073;-65
2023/06/18 07:12:07;;;;;;;1.60;1.50;;;22.00;99.90;;;;;;6109445;23;20017;-65
2023/06/18 07:14:32;;;;;;;1.48;1.38;;;22.00;99.90;;;;;;6085317;23;20284;-65
2023/06/18 07:16:58;;;;;;;2.10;1.55;;;22.00;99.90;;;;;;6108843;23;20450;-64
2023/06/18 07:19:24;;;;;;;2.40;1.63;;;22.20;99.90;;;;;;6110285;23;20033;-65
2023/06/18 07:21:53;;;;;;;2.53;1.55;;;22.30;99.90;;;;;;6104501;23;20447;-64
2023/06/18 07:24:20;;;;;;;7.88;1.80;;;22.40;99.90;;;;;;6106655;23;20006;-66
2023/06/18 07:26:45;;;;;;;2.00;1.60;;;22.50;99.90;;;;;;6109797;23;20009;-67
2023/06/18 07:29:11;;;;;;;5.60;1.35;;;22.50;99.90;;;;;;6111659;23;20008;-65
2023/06/18 07:31:36;;;;;;;1.73;1.63;;;22.60;99.90;;;;;;6110009;23;20012;-65
2023/06/18 07:34:02;;;;;;;1.38;1.23;;;22.60;99.90;;;;;;6106278;23;20491;-65
2023/06/18 07:36:28;;;;;;;1.65;1.40;;;22.60;99.90;;;;;;6109469;23;20002;-65
2023/06/18 07:38:53;;;;;;;1.40;1.30;;;22.50;99.90;;;;;;6104757;23;20068;-65
2023/06/18 07:41:19;;;;;;;1.20;1.10;;;22.50;99.90;;;;;;6105305;23;20047;-65
2023/06/18 07:43:45;;;;;;;1.63;1.50;;;22.50;99.90;;;;;;6081833;23;20041;-65
2023/06/18 07:46:11;;;;;;;2.55;1.60;;;22.60;99.90;;;;;;6109684;23;20081;-66
2023/06/18 07:48:37;;;;;;;1.08;0.98;;;22.70;99.90;;;;;;6106917;23;20565;-65
2023/06/18 07:51:03;;;;;;;2.10;1.50;;;22.80;99.90;;;;;;6107164;23;20431;-65
2023/06/18 07:53:29;;;;;;;2.70;1.10;;;22.90;99.60;;;;;;6105501;23;20086;-65
2023/06/18 07:55:55;;;;;;;1.50;1.30;;;23.00;99.20;;;;;;6107767;23;20013;-65
2023/06/18 07:58:20;;;;;;;3.78;1.40;;;23.00;99.50;;;;;;6107531;23;20076;-66
2023/06/18 08:00:46;;;;;;;2.83;1.48;;;23.00;99.90;;;;;;6102424;23;20001;-66
2023/06/18 08:03:12;;;;;;;1.63;1.52;;;23.10;99.90;;;;;;6106483;23;20833;-66
2023/06/18 08:05:37;;;;;;;1.73;1.42;;;23.20;99.10;;;;;;6110574;23;20037;-65
2023/06/18 08:08:03;;;;;;;2.75;1.40;;;23.20;99.90;;;;;;6078082;23;20072;-66
2023/06/18 08:10:29;;;;;;;1.95;1.60;;;23.30;99.60;;;;;;6105924;23;20122;-65
2023/06/18 08:12:54;;;;;;;1.88;1.77;;;23.30;98.80;;;;;;6106540;23;20091;-65
2023/06/18 08:15:20;;;;;;;1.55;1.40;;;23.30;98.90;;;;;;6107166;23;20009;-65
2023/06/18 08:17:45;;;;;;;2.45;1.48;;;23.40;99.00;;;;;;6104956;23;20074;-66
2023/06/18 08:20:11;;;;;;;2.08;1.88;;;23.40;99.90;;;;;;6105816;23;20498;-65
2023/06/18 08:22:37;;;;;;;3.45;2.03;;;23.50;98.30;;;;;;6082083;23;20013;-74
2023/06/18 08:25:03;;;;;;;2.70;1.88;;;23.50;99.90;;;;;;6111118;23;20006;-70
2023/06/18 08:27:29;;;;;;;10.38;1.98;;;23.50;99.40;;;;;;6105903;23;20010;-70
2023/06/18 08:29:54;;;;;;;3.83;1.80;;;23.60;99.90;;;;;;6108338;23;20002;-70
2023/06/18 08:32:20;;;;;;;7.63;2.13;;;23.70;99.90;;;;;;6104460;23;20165;-70
2023/06/18 08:34:46;;;;;;;3.70;2.35;;;23.80;99.70;;;;;;6104929;23;20076;-70
2023/06/18 08:37:12;;;;;;;1.67;1.58;;;23.80;98.90;;;;;;6104242;23;20010;-69
2023/06/18 08:39:38;;;;;;;3.28;1.90;;;23.80;99.20;;;;;;6107315;23;20029;-70
2023/06/18 08:42:05;;;;;;;3.95;1.80;;;23.90;99.00;;;;;;6108193;23;20020;-69
2023/06/18 08:44:34;;;;;;;2.17;1.50;;;24.00;99.90;;;;;;6109050;23;20048;-71
2023/06/18 08:47:03;;;;;;;6.75;1.90;;;24.00;98.70;;;;;;6109617;23;20010;-71
2023/06/18 08:49:29;;;;;;;3.78;1.80;;;24.10;97.90;;;;;;6109479;23;20140;-69
2023/06/18 08:51:57;;;;;;;1.70;1.60;;;24.10;98.10;;;;;;6106909;23;20457;-69
2023/06/18 08:54:33;;;;;;;1.95;1.80;;;24.00;98.20;;;;;;6110184;23;20105;-67
2023/06/18 08:57:31;;;;;;;2.15;1.80;;;24.10;97.60;;;;;;6109943;23;20056;-69
2023/06/18 08:59:59;;;;;;;2.08;1.98;;;24.10;96.70;;;;;;6094234;23;20061;-68
2023/06/18 09:02:27;;;;;;;1.80;1.70;;;24.00;96.70;;;;;;6108975;23;20316;-70
2023/06/18 09:04:53;;;;;;;4.93;2.15;;;24.00;98.70;;;;;;6111523;23;20088;-69
2023/06/18 09:07:20;;;;;;;2.25;1.88;;;24.10;97.10;;;;;;6112672;23;20013;-68
2023/06/18 09:09:47;;;;;;;2.60;2.13;;;24.10;97.90;;;;;;6113110;23;20526;-66
2023/06/18 09:12:12;;;;;;;2.58;2.13;;;24.10;97.10;;;;;;6111535;23;20192;-66
2023/06/18 09:14:38;;;;;;;2.20;2.00;;;24.10;98.10;;;;;;6111255;23;20423;-66
2023/06/18 09:17:04;;;;;;;6.25;2.40;;;24.20;98.10;;;;;;6108342;23;20800;-65
2023/06/18 09:19:31;;;;;;;3.67;2.30;;;24.20;98.30;;;;;;6112799;23;20089;-66
2023/06/18 09:22:12;;;;;;;5.18;2.28;;;24.20;97.70;;;;;;6112024;23;20017;-65
2023/06/18 09:24:38;;;;;;;7.57;1.95;;;24.20;97.40;;;;;;6111992;23;20364;-66
2023/06/18 09:27:07;;;;;;;4.03;2.20;;;24.20;97.70;;;;;;6080109;23;20010;-66
2023/06/18 09:29:34;;;;;;;2.40;2.10;;;24.20;99.00;;;;;;6107906;23;20077;-68
2023/06/18 09:32:07;;;;;;;2.30;2.10;;;24.40;97.00;;;;;;6112170;23;20009;-67
2023/06/18 09:34:32;;;;;;;3.08;2.42;;;24.50;96.90;;;;;;6112272;23;20080;-67
2023/06/18 09:36:58;;;;;;;3.63;2.30;;;24.50;96.80;;;;;;6106874;23;20081;-66
2023/06/18 09:39:25;;;;;;;2.25;2.03;;;24.50;97.60;;;;;;6103884;23;20419;-67
2023/06/18 09:41:53;;;;;;;4.95;2.17;;;24.50;96.40;;;;;;6110770;23;20022;-67
2023/06/18 09:44:21;;;;;;;12.30;2.67;;;24.50;97.70;;;;;;6084718;23;20078;-69
2023/06/18 09:46:58;;;;;;;2.80;2.60;;;24.60;98.00;;;;;;6107974;23;20021;-68
2023/06/18 09:49:25;;;;;;;2.85;2.60;;;24.70;96.70;;;;;;6104781;23;20330;-67
2023/06/18 09:51:52;;;;;;;4.95;2.78;;;24.70;94.60;;;;;;6113607;23;20515;-67
2023/06/18 09:54:18;;;;;;;3.25;2.33;;;24.50;95.30;;;;;;6113822;23;20080;-67
2023/06/18 09:57:00;;;;;;;2.30;2.10;;;24.50;96.90;;;;;;6113537;23;20006;-63
2023/06/18 09:59:27;;;;;;;;;;;24.60;93.70;;;;;;6112326;23;20006;-64
2023/06/18 10:01:53;;;;;;;13.68;2.75;;;24.60;94.30;;;;;;6108310;23;20327;-68
2023/06/18 10:04:18;;;;;;;8.55;2.97;;;24.60;90.50;;;;;;6104882;23;20410;-69
2023/06/18 10:06:58;;;;;;;6.18;2.58;;;24.60;94.60;;;;;;6106961;23;20703;-62
2023/06/18 10:09:39;;;;;;;2.60;2.38;;;24.60;94.60;;;;;;6105237;23;20002;-62
2023/06/18 10:12:06;;;;;;;4.65;2.22;;;24.80;95.20;;;;;;6109077;23;20415;-62
2023/06/18 10:14:33;;;;;;;4.80;2.75;;;25.00;93.80;;;;;;6104140;23;20564;-62
2023/06/18 10:17:08;;;;;;;6.93;2.47;;;25.00;92.70;;;;;;6106146;23;20013;-62
2023/06/18 10:19:41;;;;;;;2.53;2.13;;;25.00;93.50;;;;;;6105590;23;20006;-62
2023/06/18 10:22:09;;;;;;;9.50;2.60;;;25.00;94.50;;;;;;6102960;23;20517;-62
2023/06/18 10:25:06;;;;;;;7.45;2.92;;;25.10;95.60;;;;;;6103637;23;20030;-62
2023/06/18 10:27:33;;;;;;;7.03;2.90;;;25.30;95.10;;;;;;6108407;23;20056;-62
2023/06/18 10:29:59;;;;;;;2.85;2.58;;;25.40;94.80;;;;;;6110059;23;20006;-62
2023/06/18 10:32:30;;;;;;;3.58;2.35;;;25.40;93.30;;;;;;6107471;23;20039;-62
2023/06/18 10:34:59;;;;;;;3.00;2.55;;;25.40;92.80;;;;;;6106219;23;20018;-62
2023/06/18 10:37:26;;;;;;;2.75;2.55;;;25.40;93.10;;;;;;6103384;23;20079;-62
2023/06/18 10:39:53;;;;;;;3.65;2.60;;;25.30;93.10;;;;;;6105654;23;20013;-62
2023/06/18 10:42:20;;;;;;;15.90;2.78;;;25.30;94.20;;;;;;6103034;23;20048;-62
2023/06/18 10:44:57;;;;;;;16.50;2.80;;;25.30;94.80;;;;;;6106066;23;20002;-64
2023/06/18 10:47:26;;;;;;;3.85;2.60;;;25.40;95.10;;;;;;6085620;23;20261;-62
2023/06/18 10:50:00;;;;;;;3.10;2.42;;;25.50;94.90;;;;;;6103358;23;20005;-62
2023/06/18 10:52:30;;;;;;;3.05;2.85;;;25.60;94.80;;;;;;6107436;23;20006;-63
2023/06/18 10:55:06;;;;;;;2.63;2.42;;;25.50;93.60;;;;;;6109979;23;20006;-63
2023/06/18 10:57:45;;;;;;;2.72;2.53;;;25.50;92.00;;;;;;6104627;23;20010;-63
2023/06/18 11:00:29;;;;;;;4.35;2.67;;;25.40;92.40;;;;;;6108009;23;20001;-63
2023/06/18 11:03:13;;;;;;;3.92;2.38;;;25.30;93.50;;;;;;6103528;23;20033;-62
2023/06/18 11:05:51;;;;;;;3.30;2.50;;;25.30;92.40;;;;;;6108827;23;19997;-62
2023/06/18 11:08:30;;;;;;;3.20;2.90;;;25.30;95.10;;;;;;6108682;23;20033;-62
2023/06/18 11:11:14;;;;;;;4.00;2.70;;;25.30;93.30;;;;;;6109798;23;20036;-69
2023/06/18 11:13:41;;;;;;;14.02;2.75;;;25.30;94.10;;;;;;6105408;23;20551;-70
2023/06/18 11:16:06;;;;;;;2.80;2.60;;;25.30;92.90;;;;;;6104839;23;20005;-66
2023/06/18 11:18:33;;;;;;;3.05;2.70;;;25.30;93.30;;;;;;6103378;23;20013;-64
2023/06/18 11:21:02;;;;;;;4.55;2.85;;;25.10;92.40;;;;;;6107698;23;20002;-71
2023/06/18 11:23:29;;;;;;;2.83;2.63;;;25.10;92.40;;;;;;6106408;23;20577;-70
2023/06/18 11:25:54;;;;;;;2.67;2.20;;;25.10;94.00;;;;;;6105868;23;20002;-70
2023/06/18 11:28:21;;;;;;;2.83;2.63;;;25.10;92.10;;;;;;6110194;23;20013;-71
2023/06/18 11:30:50;;;;;;;3.88;2.60;;;25.20;93.30;;;;;;6108400;23;20017;-70
2023/06/18 11:33:27;;;;;;;3.47;2.60;;;25.30;92.60;;;;;;6109134;23;20013;-71
2023/06/18 11:35:54;;;;;;;3.20;2.30;;;25.30;90.30;;;;;;6105305;23;20028;-70
2023/06/18 11:38:21;;;;;;;2.67;2.40;;;25.20;90.90;;;;;;6106740;23;20010;-71
2023/06/18 11:40:52;;;;;;;3.92;3.25;;;25.10;91.70;;;;;;6107732;23;20028;-70
2023/06/18 11:43:19;;;;;;;3.30;3.00;;;25.20;91.40;;;;;;6106773;23;20088;-70
2023/06/18 11:45:49;;;;;;;4.32;3.08;;;25.20;90.00;;;;;;6107031;23;20010;-70
2023/06/18 11:48:16;;;;;;;4.78;2.83;;;25.20;90.60;;;;;;6105709;23;20032;-70
2023/06/18 11:50:43;;;;;;;2.65;2.45;;;25.20;92.20;;;;;;6104921;23;20006;-72
2023/06/18 11:53:11;;;;;;;3.20;2.92;;;25.30;93.20;;;;;;6108411;23;20010;-74
2023/06/18 11:55:37;;;;;;;3.08;2.75;;;25.30;91.40;;;;;;6108649;23;20002;-75
2023/06/18 11:58:05;;;;;;;5.22;2.80;;;25.10;90.50;;;;;;6105439;23;20010;-73
2023/06/18 12:00:30;;;;;;;4.35;2.60;;;25.00;91.30;;;;;;6108086;23;20512;-73
2023/06/18 12:02:59;;;;;;;2.65;2.45;;;24.80;92.40;;;;;;6100774;23;20755;-71
2023/06/18 12:05:25;;;;;;;2.60;2.22;;;24.70;92.80;;;;;;6091243;23;20417;-70
2023/06/18 12:07:50;;;;;;;3.00;2.70;;;24.60;91.80;;;;;;6104667;23;20657;-72
2023/06/18 12:10:16;;;;;;;3.28;2.42;;;24.50;91.90;;;;;;6102126;23;20009;-72
2023/06/18 12:12:57;;;;;;;9.45;2.63;;;24.50;92.20;;;;;;6077537;23;20068;-73
2023/06/18 12:15:31;;;;;;;4.82;2.55;;;24.60;93.60;;;;;;6105477;23;20160;-72
2023/06/18 12:18:17;;;;;;;3.72;2.88;;;24.70;91.00;;;;;;6103539;23;20012;-72
2023/06/18 12:20:43;;;;;;;5.25;3.08;;;24.90;91.60;;;;;;6101041;23;20041;-70
2023/06/18 12:23:10;;;;;;;3.00;2.50;;;24.90;91.10;;;;;;6102153;23;20435;-61
2023/06/18 12:25:35;;;;;;;4.40;2.83;;;24.80;92.50;;;;;;6097131;23;20002;-62
2023/06/18 12:28:06;;;;;;;2.95;2.40;;;24.80;91.50;;;;;;6096565;23;20016;-61
2023/06/18 12:30:36;;;;;;;2.95;2.75;;;24.80;91.70;;;;;;6104764;23;20017;-61
2023/06/18 12:33:01;;;;;;;3.63;2.80;;;24.70;92.20;;;;;;6107578;23;20654;-62
2023/06/18 12:35:27;;;;;;;3.10;2.60;;;24.70;91.80;;;;;;6105671;23;20002;-62
2023/06/18 12:37:53;;;;;;;4.97;2.65;;;24.80;92.40;;;;;;6110516;23;20502;-62
2023/06/18 12:40:23;;;;;;;4.97;2.45;;;24.90;92.70;;;;;;6108086;23;20005;-62
2023/06/18 12:42:50;;;;;;;3.20;2.80;;;25.20;90.80;;;;;;6108391;23;20021;-72
2023/06/18 12:45:22;;;;;;;3.67;2.60;;;25.30;93.80;;;;;;6100653;23;20009;-73
2023/06/18 12:47:48;;;;;;;2.78;2.58;;;25.50;92.60;;;;;;6108994;23;20708;-71
2023/06/18 12:50:25;;;;;;;2.88;2.67;;;25.70;91.70;;;;;;6110317;23;20002;-73